• Join FlightAware (Why Join?)
  • Login
  • US Flag 
09:38PM EDT


 

Airport Tracker/Info


-or-


 

Live Flight TrackerFlight Track Log ✈ N3333A ✈ 14-Jul-2013 ✈ F45 - KCHN

Flight Track Log - Related Links

Times and Time Zones

All times are in EDT time to prevent confusion due to time zone crossing. See the N3333A flight status page for this flight to view local times or setup timezone preferences in your user account.

Time Position Orientation Groundspeed Altitude Reporting Facility
EDT Latitude Longitude Course Direction KTS MPH feet Rate Location/Type
11:14AM 26.8642 -80.4100 261° West 114 131 4,900  Level Miami Center
11:15AM 26.8633 -80.4472 269° West 119 137 5,500 480 Climbing Miami Center
11:16AM 26.8625 -80.4800 268° West 133 153 5,900 180 Climbing Miami Center
11:17AM 26.8550 -80.5261 260° West 155 178 5,900  Level Miami Center
11:18AM 26.8517 -80.5819 266° West 155 178 5,900  Level Miami Center
11:19AM 26.8483 -80.6331 266° West 160 184 5,900  Level Miami Center
11:20AM 26.8428 -80.6817 263° West 160 184 5,900  Level Miami Center
11:21AM 26.8478 -80.7261 277° West 160 184 5,900  Level Miami Center
11:22AM 26.8506 -80.7775 273° West 160 184 5,900  Level Miami Center
11:23AM 26.8472 -80.8308 266° West 160 184 5,900  Level Miami Center
11:24AM 26.8478 -80.8822 271° West 160 184 5,900  Level Miami Center
11:25AM 26.8483 -80.9356 271° West 160 184 5,900  Level Miami Center
11:26AM 26.8472 -80.9800 268° West 160 184 5,900  Level Miami Center
11:27AM 26.8475 -81.0381 270° West 160 184 5,900  Level Miami Center
11:28AM 26.8503 -81.0917 273° West 170 196 5,900  Level Miami Center
11:29AM 26.8550 -81.1431 276° West 170 196 5,900  Level Miami Center
11:30AM 26.8639 -81.1922 281° West 170 196 5,900  Level Miami Center
11:31AM 26.8667 -81.2436 273° West 170 196 5,900  Level Miami Center
11:32AM 26.8672 -81.2947 271° West 163 188 5,900  Level Miami Center
11:33AM 26.8697 -81.3439 273° West 163 188 5,900  Level Miami Center
11:34AM 26.8786 -81.3931 281° West 158 182 5,900  Level Miami Center
11:35AM 26.9133 -81.4222 323° Northwest 158 182 5,900 -60 Level Miami Center
11:36AM 26.9497 -81.4586 318° Northwest 169 194 5,800 -600 Descending Miami Center
11:37AM 27.0128 -81.5078 325° Northwest 175 201 4,500 -900 Descending Miami Center
11:38AM 27.0453 -81.5369 321° Northwest 175 201 3,700 -960 Descending Miami Center
11:39AM 27.0919 -81.5808 320° Northwest 175 201 2,400 -780 Descending Miami Center
11:40AM 27.1283 -81.6150 320° Northwest 180 207 2,000 -300 Descending Miami Center
11:41AM 27.1564 -81.6511 311° West 169 194 1,800 -180 Descending Miami Center
11:42AM 27.1842 -81.6897 309° West 163 188 1,700 -60 Descending Miami Center
11:43AM 27.2122 -81.7283 309° West 163 188 1,700  Level Miami Center
11:44AM 27.2403 -81.7619 313° West 157 181 1,700  Level Miami Center
11:45AM 27.2725 -81.7939 319° Northwest 157 181 1,700 -120 Level Miami Center
11:46AM 27.3139 -81.8050 347° North 147 169 1,500 -120 Descending Miami Center
11:47AM 27.3550 -81.8231 339° North 152 175 1,500  Level Miami Center
11:48AM 27.3961 -81.8411 339° North 152 175 1,500  Level Miami Center
11:49AM 27.4372 -81.8594 338° Northwest 152 175 1,500  Level Miami Center
11:50AM 27.4786 -81.8753 341° North 152 175 1,500 -60 Level Miami Center
11:51AM 27.5194 -81.8958 336° Northwest 152 175 1,400 -120 Descending Miami Center